sensor_id;sensor_type;location;lat;lon;timestamp;pressure;altitude;pressure_sealevel;temperature;humidity
44839;BME280;30576;42.098;24.876;2023-02-21T00:00:07;100060.53;;;8.30;43.30
44839;BME280;30576;42.098;24.876;2023-02-21T00:02:51;100068.41;;;8.12;43.75
44839;BME280;30576;42.098;24.876;2023-02-21T00:05:35;100064.91;;;8.20;43.68
44839;BME280;30576;42.098;24.876;2023-02-21T00:08:19;100054.41;;;8.25;43.51
44839;BME280;30576;42.098;24.876;2023-02-21T00:11:03;100067.50;;;7.85;44.20
44839;BME280;30576;42.098;24.876;2023-02-21T00:13:46;100066.63;;;7.97;44.42
44839;BME280;30576;42.098;24.876;2023-02-21T00:16:30;100061.38;;;8.11;43.42
44839;BME280;30576;42.098;24.876;2023-02-21T00:19:14;100061.38;;;8.12;43.83
44839;BME280;30576;42.098;24.876;2023-02-21T00:21:59;100062.28;;;8.10;43.48
44839;BME280;30576;42.098;24.876;2023-02-21T00:24:43;100059.63;;;8.00;43.14
44839;BME280;30576;42.098;24.876;2023-02-21T00:27:27;100058.69;;;7.75;44.57
44839;BME280;30576;42.098;24.876;2023-02-21T00:30:11;100056.06;;;7.77;44.76
44839;BME280;30576;42.098;24.876;2023-02-21T00:32:54;100048.19;;;7.83;44.45
44839;BME280;30576;42.098;24.876;2023-02-21T00:35:38;100047.31;;;7.68;44.87
44839;BME280;30576;42.098;24.876;2023-02-21T00:38:22;100049.88;;;7.48;44.81
44839;BME280;30576;42.098;24.876;2023-02-21T00:41:06;100040.28;;;7.66;44.64
44839;BME280;30576;42.098;24.876;2023-02-21T00:43:50;100029.78;;;7.69;44.41
44839;BME280;30576;42.098;24.876;2023-02-21T00:46:34;100028.06;;;7.69;44.52
44839;BME280;30576;42.098;24.876;2023-02-21T00:49:18;100022.81;;;7.74;43.41
44839;BME280;30576;42.098;24.876;2023-02-21T00:52:02;100021.09;;;7.90;43.59
44839;BME280;30576;42.098;24.876;2023-02-21T00:54:46;100014.97;;;8.10;43.18
44839;BME280;30576;42.098;24.876;2023-02-21T00:57:30;100019.34;;;8.06;43.67
44839;BME280;30576;42.098;24.876;2023-02-21T01:00:17;100010.59;;;8.29;42.82
44839;BME280;30576;42.098;24.876;2023-02-21T01:03:01;100006.19;;;8.49;42.07
44839;BME280;30576;42.098;24.876;2023-02-21T01:05:45;100000.06;;;8.53;42.38
44839;BME280;30576;42.098;24.876;2023-02-21T01:08:29;99998.31;;;8.52;41.60
44839;BME280;30576;42.098;24.876;2023-02-21T01:11:14;99997.44;;;8.52;42.14
44839;BME280;30576;42.098;24.876;2023-02-21T01:13:58;99979.91;;;8.51;41.45
44839;BME280;30576;42.098;24.876;2023-02-21T01:16:42;99977.28;;;8.26;42.17
44839;BME280;30576;42.098;24.876;2023-02-21T01:19:26;99974.66;;;8.34;42.47
44839;BME280;30576;42.098;24.876;2023-02-21T01:22:10;99968.50;;;8.56;41.28
44839;BME280;30576;42.098;24.876;2023-02-21T01:24:54;99960.59;;;8.67;40.92
44839;BME280;30576;42.098;24.876;2023-02-21T01:27:38;99954.47;;;8.70;41.20
44839;BME280;30576;42.098;24.876;2023-02-21T01:30:22;99948.34;;;8.34;41.74
44839;BME280;30576;42.098;24.876;2023-02-21T01:33:09;99944.00;;;8.36;41.77
44839;BME280;30576;42.098;24.876;2023-02-21T01:35:53;99945.72;;;8.55;41.36
44839;BME280;30576;42.098;24.876;2023-02-21T01:38:37;99926.47;;;8.44;41.38
44839;BME280;30576;42.098;24.876;2023-02-21T01:41:21;99936.94;;;8.66;41.09
44839;BME280;30576;42.098;24.876;2023-02-21T01:47:09;99930.72;;;8.85;41.05
44839;BME280;30576;42.098;24.876;2023-02-21T01:49:53;99922.78;;;8.96;40.54
44839;BME280;30576;42.098;24.876;2023-02-21T01:52:37;99930.84;;;8.56;40.63
44839;BME280;30576;42.098;24.876;2023-02-21T01:55:21;99924.66;;;8.58;41.43
44839;BME280;30576;42.098;24.876;2023-02-21T01:58:05;99929.94;;;8.41;42.02
44839;BME280;30576;42.098;24.876;2023-02-21T02:00:49;99935.19;;;8.40;41.84
44839;BME280;30576;42.098;24.876;2023-02-21T02:03:33;99922.06;;;8.38;40.74
44839;BME280;30576;42.098;24.876;2023-02-21T02:06:17;99915.06;;;8.51;40.77
44839;BME280;30576;42.098;24.876;2023-02-21T02:09:17;99916.78;;;8.57;41.33
44839;BME280;30576;42.098;24.876;2023-02-21T02:25:40;99900.00;;;8.90;40.44
44839;BME280;30576;42.098;24.876;2023-02-21T02:29:03;99893.03;;;8.80;40.64
44839;BME280;30576;42.098;24.876;2023-02-21T02:43:54;99895.78;;;8.37;40.72
44839;BME280;30576;42.098;24.876;2023-02-21T02:46:26;99884.44;;;8.18;40.59
44839;BME280;30576;42.098;24.876;2023-02-21T02:48:54;99887.06;;;8.21;40.93
44839;BME280;30576;42.098;24.876;2023-02-21T02:51:20;99889.75;;;7.90;41.70
44839;BME280;30576;42.098;24.876;2023-02-21T02:53:45;99888.00;;;7.64;42.61
44839;BME280;30576;42.098;24.876;2023-02-21T02:56:12;99881.00;;;7.56;44.09
44839;BME280;30576;42.098;24.876;2023-02-21T02:58:39;99874.00;;;7.71;43.34
44839;BME280;30576;42.098;24.876;2023-02-21T03:11:16;99866.97;;;7.24;44.41
44839;BME280;30576;42.098;24.876;2023-02-21T03:21:03;99860.88;;;7.34;44.21
44839;BME280;30576;42.098;24.876;2023-02-21T03:23:30;99858.25;;;7.76;43.15
44839;BME280;30576;42.098;24.876;2023-02-21T03:25:58;99849.47;;;7.88;42.70
44839;BME280;30576;42.098;24.876;2023-02-21T03:28:23;99850.34;;;7.98;42.46
44839;BME280;30576;42.098;24.876;2023-02-21T03:30:50;99863.44;;;8.10;41.78
44839;BME280;30576;42.098;24.876;2023-02-21T03:33:17;99858.97;;;8.38;41.03
44839;BME280;30576;42.098;24.876;2023-02-21T03:35:42;99859.88;;;8.34;41.13
44839;BME280;30576;42.098;24.876;2023-02-21T03:38:10;99860.72;;;8.52;40.95
44839;BME280;30576;42.098;24.876;2023-02-21T03:40:36;99861.56;;;8.55;40.81
44839;BME280;30576;42.098;24.876;2023-02-21T03:43:02;99868.56;;;8.61;40.50
44839;BME280;30576;42.098;24.876;2023-02-21T03:45:29;99867.69;;;8.62;40.77
44839;BME280;30576;42.098;24.876;2023-02-21T03:47:54;99874.66;;;8.71;41.56
44839;BME280;30576;42.098;24.876;2023-02-21T03:50:19;99877.38;;;8.51;42.20
44839;BME280;30576;42.098;24.876;2023-02-21T03:52:45;99885.25;;;8.48;42.40
44839;BME280;30576;42.098;24.876;2023-02-21T03:55:10;99873.06;;;8.16;42.61
44839;BME280;30576;42.098;24.876;2023-02-21T03:57:35;99886.25;;;7.82;44.05
44839;BME280;30576;42.098;24.876;2023-02-21T04:00:01;99877.50;;;7.47;45.03
44839;BME280;30576;42.098;24.876;2023-02-21T04:02:26;99881.88;;;7.71;44.22
44839;BME280;30576;42.098;24.876;2023-02-21T04:04:52;99884.50;;;7.36;45.42
44839;BME280;30576;42.098;24.876;2023-02-21T04:07:18;99877.44;;;7.03;46.68
44839;BME280;30576;42.098;24.876;2023-02-21T04:09:44;99886.22;;;7.09;46.52
44839;BME280;30576;42.098;24.876;2023-02-21T04:12:09;99876.56;;;7.01;46.84
44839;BME280;30576;42.098;24.876;2023-02-21T04:14:35;99875.72;;;7.14;46.61
44839;BME280;30576;42.098;24.876;2023-02-21T04:17:02;99875.69;;;7.02;46.21
44839;BME280;30576;42.098;24.876;2023-02-21T04:19:30;99879.19;;;7.01;46.52
44839;BME280;30576;42.098;24.876;2023-02-21T04:21:55;99873.13;;;7.28;45.75
44839;BME280;30576;42.098;24.876;2023-02-21T04:24:21;99874.84;;;7.37;45.92
44839;BME280;30576;42.098;24.876;2023-02-21T04:26:47;99869.56;;;7.10;46.33
44839;BME280;30576;42.098;24.876;2023-02-21T04:29:13;99870.47;;;7.15;46.07
44839;BME280;30576;42.098;24.876;2023-02-21T04:31:47;99863.50;;;7.53;44.89
44839;BME280;30576;42.098;24.876;2023-02-21T04:34:12;99866.94;;;8.14;42.94
44839;BME280;30576;42.098;24.876;2023-02-21T04:36:37;99866.81;;;8.63;41.77
44839;BME280;30576;42.098;24.876;2023-02-21T04:39:03;99866.59;;;9.02;40.57
44839;BME280;30576;42.098;24.876;2023-02-21T04:41:28;99873.44;;;9.34;39.58
44839;BME280;30576;42.098;24.876;2023-02-21T04:43:54;99864.50;;;9.55;40.12
44839;BME280;30576;42.098;24.876;2023-02-21T04:46:19;99871.41;;;9.68;39.46
44839;BME280;30576;42.098;24.876;2023-02-21T04:48:46;99878.44;;;9.67;39.49
44839;BME280;30576;42.098;24.876;2023-02-21T04:51:15;99875.78;;;9.71;39.45
44839;BME280;30576;42.098;24.876;2023-02-21T04:53:45;99881.94;;;9.66;38.89
44839;BME280;30576;42.098;24.876;2023-02-21T04:56:10;99882.81;;;9.70;38.89
44839;BME280;30576;42.098;24.876;2023-02-21T04:58:37;99880.97;;;9.80;39.30
44839;BME280;30576;42.098;24.876;2023-02-21T05:01:02;99881.78;;;9.86;39.33
44839;BME280;30576;42.098;24.876;2023-02-21T05:03:28;99882.50;;;10.06;38.75
44839;BME280;30576;42.098;24.876;2023-02-21T05:05:53;99881.59;;;10.07;38.50
44839;BME280;30576;42.098;24.876;2023-02-21T05:08:19;99880.66;;;10.12;37.51
44839;BME280;30576;42.098;24.876;2023-02-21T05:10:44;99881.53;;;10.13;38.61
44839;BME280;30576;42.098;24.876;2023-02-21T05:13:10;99879.84;;;10.06;38.30
44839;BME280;30576;42.098;24.876;2023-02-21T05:15:36;99890.41;;;10.06;38.30
44839;BME280;30576;42.098;24.876;2023-02-21T05:18:01;99879.91;;;10.01;38.26
44839;BME280;30576;42.098;24.876;2023-02-21T05:20:26;99888.63;;;10.08;37.83
44839;BME280;30576;42.098;24.876;2023-02-21T05:22:53;99871.78;;;10.23;38.04
44839;BME280;30576;42.098;24.876;2023-02-21T05:25:19;99879.88;;;10.04;37.95
44839;BME280;30576;42.098;24.876;2023-02-21T05:27:45;99884.94;;;10.24;36.97
44839;BME280;30576;42.098;24.876;2023-02-21T05:30:11;99886.75;;;10.17;37.63
44839;BME280;30576;42.098;24.876;2023-02-21T05:32:37;99886.69;;;10.22;37.85
44839;BME280;30576;42.098;24.876;2023-02-21T05:35:02;99897.19;;;10.28;36.66
44839;BME280;30576;42.098;24.876;2023-02-21T05:37:28;99894.56;;;10.25;37.00
44839;BME280;30576;42.098;24.876;2023-02-21T05:39:53;99898.94;;;10.34;36.45
44839;BME280;30576;42.098;24.876;2023-02-21T05:42:18;99894.47;;;10.37;36.88
44839;BME280;30576;42.098;24.876;2023-02-21T05:44:44;99888.19;;;10.51;36.90
44839;BME280;30576;42.098;24.876;2023-02-21T05:47:09;99891.75;;;10.45;36.64
44839;BME280;30576;42.098;24.876;2023-02-21T05:49:35;99897.03;;;10.44;36.88
44839;BME280;30576;42.098;24.876;2023-02-21T05:52:02;99897.09;;;10.41;36.71
44839;BME280;30576;42.098;24.876;2023-02-21T05:54:29;99898.94;;;10.34;37.59
44839;BME280;30576;42.098;24.876;2023-02-21T05:56:54;99902.38;;;10.37;36.90
44839;BME280;30576;42.098;24.876;2023-02-21T05:59:19;99907.56;;;10.47;37.18
44839;BME280;30576;42.098;24.876;2023-02-21T06:01:45;99908.22;;;10.64;36.71
44839;BME280;30576;42.098;24.876;2023-02-21T06:04:11;99905.50;;;10.72;36.88
44839;BME280;30576;42.098;24.876;2023-02-21T06:06:36;99901.78;;;10.90;36.38
44839;BME280;30576;42.098;24.876;2023-02-21T06:09:02;99912.22;;;10.98;36.53
44839;BME280;30576;42.098;24.876;2023-02-21T06:11:29;99906.84;;;11.05;36.83
44839;BME280;30576;42.098;24.876;2023-02-21T06:13:57;99908.59;;;11.06;36.55
44839;BME280;30576;42.098;24.876;2023-02-21T06:16:23;99907.50;;;11.21;36.38
44839;BME280;30576;42.098;24.876;2023-02-21T06:18:52;99915.97;;;11.45;35.94
44839;BME280;30576;42.098;24.876;2023-02-21T06:21:18;99914.09;;;11.52;36.21
44839;BME280;30576;42.098;24.876;2023-02-21T06:23:43;99906.91;;;11.61;36.44
44839;BME280;30576;42.098;24.876;2023-02-21T06:26:08;99920.06;;;11.64;35.94
44839;BME280;30576;42.098;24.876;2023-02-21T06:28:34;99915.31;;;11.87;35.60
44839;BME280;30576;42.098;24.876;2023-02-21T06:30:59;99913.78;;;11.72;35.74
44839;BME280;30576;42.098;24.876;2023-02-21T06:33:24;99917.19;;;11.78;35.50
44839;BME280;30576;42.098;24.876;2023-02-21T06:35:50;99909.97;;;11.93;35.28
44839;BME280;30576;42.098;24.876;2023-02-21T06:38:15;99915.91;;;12.06;34.88
44839;BME280;30576;42.098;24.876;2023-02-21T06:40:40;99911.47;;;12.06;34.92
44839;BME280;30576;42.098;24.876;2023-02-21T06:43:06;99908.59;;;12.18;35.28
44839;BME280;30576;42.098;24.876;2023-02-21T06:45:31;99906.16;;;12.56;34.35
44839;BME280;30576;42.098;24.876;2023-02-21T06:47:56;99904.41;;;12.55;34.27
44839;BME280;30576;42.098;24.876;2023-02-21T06:50:22;99896.28;;;12.64;33.85
44839;BME280;30576;42.098;24.876;2023-02-21T06:52:47;99901.91;;;12.91;34.21
44839;BME280;30576;42.098;24.876;2023-02-21T06:55:12;99905.94;;;13.09;34.01
44839;BME280;30576;42.098;24.876;2023-02-21T06:57:38;99899.44;;;13.24;34.21
44839;BME280;30576;42.098;24.876;2023-02-21T07:00:04;99894.06;;;13.27;33.69
44839;BME280;30576;42.098;24.876;2023-02-21T07:02:29;99885.94;;;13.36;33.27
44839;BME280;30576;42.098;24.876;2023-02-21T07:04:55;99894.00;;;13.68;32.71
44839;BME280;30576;42.098;24.876;2023-02-21T07:07:20;99888.69;;;14.04;33.10
44839;BME280;30576;42.098;24.876;2023-02-21T07:09:45;99888.88;;;13.96;33.42
44839;BME280;30576;42.098;24.876;2023-02-21T07:12:11;99887.53;;;13.79;32.52
44839;BME280;30576;42.098;24.876;2023-02-21T07:14:36;99885.16;;;14.03;32.42
44839;BME280;30576;42.098;24.876;2023-02-21T07:17:01;99876.69;;;14.23;32.49
44839;BME280;30576;42.098;24.876;2023-02-21T07:19:27;99883.63;;;14.29;33.03
44839;BME280;30576;42.098;24.876;2023-02-21T07:21:52;99877.00;;;14.44;31.90
44839;BME280;30576;42.098;24.876;2023-02-21T07:24:17;99892.94;;;14.42;32.13
44839;BME280;30576;42.098;24.876;2023-02-21T07:26:42;99876.84;;;14.48;31.96
44839;BME280;30576;42.098;24.876;2023-02-21T07:29:08;99885.00;;;14.42;31.72
44839;BME280;30576;42.098;24.876;2023-02-21T07:31:33;99880.03;;;14.30;32.06
44839;BME280;30576;42.098;24.876;2023-02-21T07:33:58;99881.53;;;14.40;32.51
44839;BME280;30576;42.098;24.876;2023-02-21T07:36:24;99878.22;;;14.65;31.87
44839;BME280;30576;42.098;24.876;2023-02-21T07:38:49;99879.16;;;14.62;32.07
44839;BME280;30576;42.098;24.876;2023-02-21T07:41:15;99882.00;;;14.55;32.21
44839;BME280;30576;42.098;24.876;2023-02-21T07:43:40;99878.66;;;14.79;31.99
44839;BME280;30576;42.098;24.876;2023-02-21T07:46:09;99870.53;;;14.85;32.24
44839;BME280;30576;42.098;24.876;2023-02-21T07:48:35;99875.59;;;14.93;31.50
44839;BME280;30576;42.098;24.876;2023-02-21T07:51:01;99871.75;;;15.03;32.04
44839;BME280;30576;42.098;24.876;2023-02-21T07:53:26;99873.00;;;14.92;31.83
44839;BME280;30576;42.098;24.876;2023-02-21T07:55:51;99866.63;;;15.26;31.62
44839;BME280;30576;42.098;24.876;2023-02-21T07:58:16;99869.94;;;15.34;30.71
44839;BME280;30576;42.098;24.876;2023-02-21T08:00:42;99863.88;;;15.29;31.58
44839;BME280;30576;42.098;24.876;2023-02-21T08:03:08;99861.56;;;15.46;31.55
44839;BME280;30576;42.098;24.876;2023-02-21T08:05:36;99848.38;;;15.97;30.67
44839;BME280;30576;42.098;24.876;2023-02-21T08:08:01;99849.41;;;16.43;30.13
44839;BME280;30576;42.098;24.876;2023-02-21T08:10:26;99845.41;;;16.78;29.88
44839;BME280;30576;42.098;24.876;2023-02-21T08:12:53;99843.28;;;16.88;29.51
44839;BME280;30576;42.098;24.876;2023-02-21T08:15:18;99828.25;;;16.87;29.49
44839;BME280;30576;42.098;24.876;2023-02-21T08:17:46;99826.81;;;17.24;28.99
44839;BME280;30576;42.098;24.876;2023-02-21T08:20:12;99827.56;;;17.70;28.56
44839;BME280;30576;42.098;24.876;2023-02-21T08:22:37;99828.31;;;17.95;28.22
44839;BME280;30576;42.098;24.876;2023-02-21T08:25:02;99829.69;;;18.05;27.80
44839;BME280;30576;42.098;24.876;2023-02-21T08:27:28;99818.50;;;18.36;27.70
44839;BME280;30576;42.098;24.876;2023-02-21T08:29:53;99812.78;;;18.65;28.28
44839;BME280;30576;42.098;24.876;2023-02-21T08:32:19;99818.41;;;18.96;27.02
44839;BME280;30576;42.098;24.876;2023-02-21T08:34:44;99809.13;;;19.23;26.84
44839;BME280;30576;42.098;24.876;2023-02-21T08:37:10;99807.22;;;18.88;26.76
44839;BME280;30576;42.098;24.876;2023-02-21T08:39:50;99801.78;;;18.71;26.23
44839;BME280;30576;42.098;24.876;2023-02-21T08:42:17;99793.56;;;18.75;26.27
44839;BME280;30576;42.098;24.876;2023-02-21T08:44:43;99790.44;;;18.66;26.34
44839;BME280;30576;42.098;24.876;2023-02-21T08:47:09;99787.34;;;18.56;26.22
44839;BME280;30576;42.098;24.876;2023-02-21T08:49:34;99765.38;;;18.68;26.49
44839;BME280;30576;42.098;24.876;2023-02-21T08:52:04;99770.25;;;18.60;26.20
44839;BME280;30576;42.098;24.876;2023-02-21T08:54:29;99757.81;;;18.59;26.47
44839;BME280;30576;42.098;24.876;2023-02-21T08:56:54;99763.00;;;18.62;26.60
44839;BME280;30576;42.098;24.876;2023-02-21T08:59:20;99759.78;;;18.55;25.94
44839;BME280;30576;42.098;24.876;2023-02-21T09:01:45;99767.47;;;18.81;26.18
44839;BME280;30576;42.098;24.876;2023-02-21T09:04:11;99757.97;;;18.56;26.13
44839;BME280;30576;42.098;24.876;2023-02-21T09:06:36;99752.63;;;18.56;26.58
44839;BME280;30576;42.098;24.876;2023-02-21T09:09:01;99744.22;;;18.25;26.67
44839;BME280;30576;42.098;24.876;2023-02-21T09:11:27;99757.34;;;18.30;26.74
44839;BME280;30576;42.098;24.876;2023-02-21T09:13:52;99752.75;;;18.53;26.30
44839;BME280;30576;42.098;24.876;2023-02-21T09:16:19;99753.19;;;18.43;26.42
44839;BME280;30576;42.098;24.876;2023-02-21T09:18:51;99750.06;;;18.72;26.55
44839;BME280;30576;42.098;24.876;2023-02-21T09:21:17;99754.03;;;18.25;26.24
44839;BME280;30576;42.098;24.876;2023-02-21T09:23:42;99753.59;;;18.15;26.65
44839;BME280;30576;42.098;24.876;2023-02-21T09:26:08;99747.38;;;18.15;26.50
44839;BME280;30576;42.098;24.876;2023-02-21T09:28:33;99758.94;;;18.15;26.66
44839;BME280;30576;42.098;24.876;2023-02-21T09:30:58;99748.84;;;18.41;26.46
44839;BME280;30576;42.098;24.876;2023-02-21T09:33:24;99750.22;;;18.69;25.76
44839;BME280;30576;42.098;24.876;2023-02-21T09:35:49;99742.50;;;18.82;25.90
44839;BME280;30576;42.098;24.876;2023-02-21T09:38:14;99750.56;;;18.61;25.77
44839;BME280;30576;42.098;24.876;2023-02-21T09:43:06;99757.31;;;18.89;25.49
44839;BME280;30576;42.098;24.876;2023-02-21T09:45:36;99744.00;;;19.06;25.56
44839;BME280;30576;42.098;24.876;2023-02-21T09:48:04;99740.50;;;19.41;25.59
44839;BME280;30576;42.098;24.876;2023-02-21T09:50:31;99750.66;;;19.34;25.29
44839;BME280;30576;42.098;24.876;2023-02-21T09:52:58;99727.38;;;19.36;25.19
44839;BME280;30576;42.098;24.876;2023-02-21T09:57:53;99727.38;;;19.36;24.79
44839;BME280;30576;42.098;24.876;2023-02-21T10:00:23;99734.53;;;19.53;25.31
44839;BME280;30576;42.098;24.876;2023-02-21T10:02:51;99728.63;;;19.64;24.99
44839;BME280;30576;42.098;24.876;2023-02-21T10:08:08;99718.69;;;20.01;24.32
44839;BME280;30576;42.098;24.876;2023-02-21T10:10:41;99710.59;;;20.18;24.15
44839;BME280;30576;42.098;24.876;2023-02-21T10:21:01;99679.16;;;20.22;24.20
44839;BME280;30576;42.098;24.876;2023-02-21T10:23:36;99676.25;;;20.27;23.97
44839;BME280;30576;42.098;24.876;2023-02-21T10:26:04;99669.31;;;20.38;23.68
44839;BME280;30576;42.098;24.876;2023-02-21T10:28:31;99673.97;;;20.51;23.49
44839;BME280;30576;42.098;24.876;2023-02-21T10:30:58;99670.53;;;20.49;24.18
44839;BME280;30576;42.098;24.876;2023-02-21T10:33:23;99665.00;;;20.52;24.10
44839;BME280;30576;42.098;24.876;2023-02-21T10:35:49;99656.72;;;20.72;23.50
44839;BME280;30576;42.098;24.876;2023-02-21T10:38:18;99648.75;;;20.87;23.78
44839;BME280;30576;42.098;24.876;2023-02-21T10:40:50;99649.78;;;20.84;23.42
44839;BME280;30576;42.098;24.876;2023-02-21T10:46:03;99636.09;;;20.89;23.24
44839;BME280;30576;42.098;24.876;2023-02-21T10:48:35;99641.06;;;21.11;23.32
44839;BME280;30576;42.098;24.876;2023-02-21T10:51:14;99638.59;;;21.22;22.79
44839;BME280;30576;42.098;24.876;2023-02-21T10:53:41;99625.03;;;21.40;22.18
44839;BME280;30576;42.098;24.876;2023-02-21T11:01:20;99626.34;;;21.63;22.34
44839;BME280;30576;42.098;24.876;2023-02-21T11:03:53;99621.16;;;21.60;22.54
44839;BME280;30576;42.098;24.876;2023-02-21T11:06:26;99618.28;;;21.63;21.99
44839;BME280;30576;42.098;24.876;2023-02-21T11:08:55;99600.63;;;21.73;22.21
44839;BME280;30576;42.098;24.876;2023-02-21T11:11:31;99603.13;;;21.76;21.99
44839;BME280;30576;42.098;24.876;2023-02-21T11:16:40;99587.91;;;21.77;21.35
44839;BME280;30576;42.098;24.876;2023-02-21T11:19:06;99587.50;;;21.69;22.00
44839;BME280;30576;42.098;24.876;2023-02-21T11:21:31;99579.44;;;21.83;22.11
44839;BME280;30576;42.098;24.876;2023-02-21T11:24:01;99579.53;;;21.96;22.09
44839;BME280;30576;42.098;24.876;2023-02-21T11:26:27;99581.34;;;21.81;22.01
44839;BME280;30576;42.098;24.876;2023-02-21T11:28:54;99565.63;;;21.75;21.80
44839;BME280;30576;42.098;24.876;2023-02-21T11:31:30;99562.66;;;21.94;21.76
44839;BME280;30576;42.098;24.876;2023-02-21T11:33:59;99566.59;;;21.88;21.67
44839;BME280;30576;42.098;24.876;2023-02-21T11:41:47;99553.97;;;21.61;21.96
44839;BME280;30576;42.098;24.876;2023-02-21T11:46:47;99532.53;;;21.45;22.01
44839;BME280;30576;42.098;24.876;2023-02-21T11:51:42;99513.81;;;21.60;21.75
44839;BME280;30576;42.098;24.876;2023-02-21T11:54:10;99517.34;;;21.60;22.00
44839;BME280;30576;42.098;24.876;2023-02-21T12:06:50;99479.13;;;21.84;21.49
44839;BME280;30576;42.098;24.876;2023-02-21T12:14:19;99458.78;;;21.94;22.00
44839;BME280;30576;42.098;24.876;2023-02-21T12:19:37;99429.00;;;21.85;20.87
44839;BME280;30576;42.098;24.876;2023-02-21T12:22:19;99449.16;;;22.05;21.41
44839;BME280;30576;42.098;24.876;2023-02-21T12:32:38;99423.03;;;21.94;20.94
44839;BME280;30576;42.098;24.876;2023-02-21T12:35:22;99428.16;;;22.24;20.62
44839;BME280;30576;42.098;24.876;2023-02-21T12:38:00;99425.75;;;22.47;20.80
44839;BME280;30576;42.098;24.876;2023-02-21T12:40:41;99423.31;;;22.69;20.53
44839;BME280;30576;42.098;24.876;2023-02-21T12:48:10;99411.91;;;22.66;20.24
44839;BME280;30576;42.098;24.876;2023-02-21T12:50:44;99408.56;;;22.75;19.75
44839;BME280;30576;42.098;24.876;2023-02-21T12:53:12;99398.91;;;22.73;19.60
44839;BME280;30576;42.098;24.876;2023-02-21T12:55:41;99392.88;;;22.56;19.97
44839;BME280;30576;42.098;24.876;2023-02-21T13:00:45;99385.47;;;22.73;19.18
44839;BME280;30576;42.098;24.876;2023-02-21T13:05:48;99380.72;;;22.89;18.97
44839;BME280;30576;42.098;24.876;2023-02-21T13:08:16;99377.06;;;22.90;17.99
44839;BME280;30576;42.098;24.876;2023-02-21T13:10:55;99385.25;;;22.76;17.79
44839;BME280;30576;42.098;24.876;2023-02-21T13:13:29;99382.66;;;22.87;17.89
44839;BME280;30576;42.098;24.876;2023-02-21T13:16:02;99372.25;;;22.69;18.11
44839;BME280;30576;42.098;24.876;2023-02-21T13:18:31;99373.63;;;22.62;18.05
44839;BME280;30576;42.098;24.876;2023-02-21T13:28:59;99373.00;;;22.59;17.66
44839;BME280;30576;42.098;24.876;2023-02-21T13:31:32;99362.75;;;22.77;17.69
44839;BME280;30576;42.098;24.876;2023-02-21T13:34:04;99375.16;;;22.66;17.91
44839;BME280;30576;42.098;24.876;2023-02-21T13:36:32;99377.72;;;22.55;18.31
44839;BME280;30576;42.098;24.876;2023-02-21T13:41:59;99371.91;;;22.87;18.45
44839;BME280;30576;42.098;24.876;2023-02-21T13:57:36;99357.19;;;22.54;18.87
44839;BME280;30576;42.098;24.876;2023-02-21T14:02:57;99362.00;;;22.49;18.39
44839;BME280;30576;42.098;24.876;2023-02-21T14:05:23;99354.94;;;22.48;18.43
44839;BME280;30576;42.098;24.876;2023-02-21T14:08:01;99349.53;;;22.35;18.69
44839;BME280;30576;42.098;24.876;2023-02-21T14:10:38;99333.50;;;22.21;18.58
44839;BME280;30576;42.098;24.876;2023-02-21T14:13:14;99354.44;;;22.28;18.89
44839;BME280;30576;42.098;24.876;2023-02-21T14:15:42;99358.88;;;22.29;18.60
44839;BME280;30576;42.098;24.876;2023-02-21T14:18:24;99359.03;;;22.13;18.89
44839;BME280;30576;42.098;24.876;2023-02-21T14:20:50;99354.88;;;22.22;18.71
44839;BME280;30576;42.098;24.876;2023-02-21T14:23:16;99357.69;;;22.33;19.35
44839;BME280;30576;42.098;24.876;2023-02-21T14:25:52;99358.25;;;22.39;19.17
44839;BME280;30576;42.098;24.876;2023-02-21T14:31:02;99359.00;;;22.41;19.03
44839;BME280;30576;42.098;24.876;2023-02-21T14:33:27;99353.31;;;22.45;19.25
44839;BME280;30576;42.098;24.876;2023-02-21T14:36:04;99346.28;;;22.30;18.90
44839;BME280;30576;42.098;24.876;2023-02-21T14:38:33;99352.44;;;22.32;18.99
44839;BME280;30576;42.098;24.876;2023-02-21T14:41:12;99344.97;;;22.23;18.70
44839;BME280;30576;42.098;24.876;2023-02-21T14:48:42;99351.34;;;22.22;18.70
44839;BME280;30576;42.098;24.876;2023-02-21T14:56:29;99353.97;;;22.09;18.68
44839;BME280;30576;42.098;24.876;2023-02-21T14:59:17;99348.50;;;21.97;18.98
44839;BME280;30576;42.098;24.876;2023-02-21T15:04:20;99347.44;;;22.00;19.28
44839;BME280;30576;42.098;24.876;2023-02-21T15:07:02;99355.63;;;21.84;19.29
44839;BME280;30576;42.098;24.876;2023-02-21T15:09:32;99340.41;;;21.85;19.71
44839;BME280;30576;42.098;24.876;2023-02-21T15:11:57;99344.63;;;21.61;19.64
44839;BME280;30576;42.098;24.876;2023-02-21T15:14:25;99350.94;;;21.60;19.64
44839;BME280;30576;42.098;24.876;2023-02-21T15:16:55;99343.09;;;21.57;19.64
44839;BME280;30576;42.098;24.876;2023-02-21T15:19:25;99346.53;;;21.59;19.69
44839;BME280;30576;42.098;24.876;2023-02-21T15:24:31;99358.75;;;21.51;19.89
44839;BME280;30576;42.098;24.876;2023-02-21T15:27:09;99364.47;;;21.59;20.07
44839;BME280;30576;42.098;24.876;2023-02-21T15:29:35;99365.75;;;21.39;20.19
44839;BME280;30576;42.098;24.876;2023-02-21T15:32:00;99363.84;;;21.26;20.29
44839;BME280;30576;42.098;24.876;2023-02-21T15:34:33;99365.31;;;21.18;20.47
44839;BME280;30576;42.098;24.876;2023-02-21T15:39:39;99365.22;;;21.05;20.73
44839;BME280;30576;42.098;24.876;2023-02-21T15:42:09;99364.88;;;20.97;20.77
44839;BME280;30576;42.098;24.876;2023-02-21T15:47:08;99368.50;;;20.96;20.87
44839;BME280;30576;42.098;24.876;2023-02-21T15:49:45;99371.00;;;20.84;21.01
44839;BME280;30576;42.098;24.876;2023-02-21T15:52:27;99373.03;;;20.81;20.81
44839;BME280;30576;42.098;24.876;2023-02-21T15:55:13;99361.44;;;20.66;20.73
44839;BME280;30576;42.098;24.876;2023-02-21T15:57:39;99368.38;;;20.54;20.80